createdAt,value
2019-03-09T00:00:36.952Z,122.78
2019-03-09T00:03:05.439Z,123.60
2019-03-09T00:05:33.942Z,119.33
2019-03-09T00:08:02.420Z,109.25
2019-03-09T00:10:30.926Z,112.20
2019-03-09T00:12:59.402Z,110.80
2019-03-09T00:15:27.888Z,104.10
2019-03-09T00:17:56.359Z,85.57
2019-03-09T00:20:24.875Z,91.12
2019-03-09T00:23:11.156Z,79.40
2019-03-09T00:25:41.492Z,67.22
2019-03-09T00:28:14.590Z,78.45
2019-03-09T00:30:47.638Z,63.40
2019-03-09T00:33:16.128Z,60.03
2019-03-09T00:35:44.591Z,39.30
2019-03-09T00:38:13.089Z,44.77
2019-03-09T00:40:41.538Z,37.10
2019-03-09T00:43:10.020Z,67.12
2019-03-09T00:45:38.487Z,70.80
2019-03-09T00:48:06.973Z,50.12
2019-03-09T00:50:35.725Z,53.87
2019-03-09T00:53:04.292Z,53.83
2019-03-09T00:55:32.761Z,51.50
2019-03-09T00:58:01.266Z,41.58
2019-03-09T01:00:29.768Z,33.90
2019-03-09T01:02:58.237Z,37.93
2019-03-09T01:05:26.803Z,28.73
2019-03-09T01:07:55.329Z,31.75
2019-03-09T01:10:23.882Z,42.80
2019-03-09T01:12:52.387Z,35.03
2019-03-09T01:15:20.852Z,33.00
2019-03-09T01:17:49.423Z,36.42
2019-03-09T01:20:17.957Z,44.85
2019-03-09T01:22:46.443Z,47.73
2019-03-09T01:25:15.186Z,39.00
2019-03-09T01:27:43.714Z,38.53
2019-03-09T01:30:15.242Z,31.95
2019-03-09T01:32:43.791Z,20.40
2019-03-09T01:35:12.341Z,25.82
2019-03-09T01:37:41.139Z,27.80
2019-03-09T01:40:14.944Z,28.42
2019-03-09T01:42:43.628Z,17.60
2019-03-09T01:45:16.421Z,23.62
2019-03-09T01:47:45.170Z,22.17
2019-03-09T01:50:13.778Z,24.45
2019-03-09T01:52:42.315Z,24.00
2019-03-09T01:55:12.696Z,20.05
2019-03-09T01:57:41.163Z,17.40
2019-03-09T02:00:12.695Z,16.20
2019-03-09T02:02:41.218Z,14.43
2019-03-09T02:05:10.123Z,14.40
2019-03-09T02:07:38.953Z,12.82
2019-03-09T02:10:10.031Z,12.90
2019-03-09T02:12:38.651Z,10.43
2019-03-09T02:15:09.667Z,12.95
2019-03-09T02:17:38.222Z,13.87
2019-03-09T02:20:09.897Z,12.68
2019-03-09T02:22:38.374Z,10.82
2019-03-09T02:25:08.323Z,10.93
2019-03-09T02:27:36.882Z,10.28
2019-03-09T02:30:08.788Z,12.10
2019-03-09T02:35:08.220Z,13.38
2019-03-09T02:37:36.688Z,10.43
2019-03-09T02:40:09.467Z,10.95
2019-03-09T02:42:37.928Z,9.95
2019-03-09T02:45:11.887Z,9.03
2019-03-09T02:47:40.353Z,9.28
2019-03-09T02:50:11.888Z,10.08
2019-03-09T02:52:40.387Z,10.15
2019-03-09T02:55:10.234Z,8.65
2019-03-09T02:57:38.796Z,9.50
2019-03-09T03:00:10.520Z,10.28
2019-03-09T03:02:40.631Z,10.13
2019-03-09T03:05:09.359Z,10.58
2019-03-09T03:07:37.851Z,9.28
2019-03-09T03:10:08.754Z,9.95
2019-03-09T03:12:37.290Z,11.73
2019-03-09T03:15:08.550Z,10.60
2019-03-09T03:17:37.015Z,9.68
2019-03-09T03:20:07.437Z,8.25
2019-03-09T03:22:35.914Z,9.15
2019-03-09T03:25:06.046Z,6.37
2019-03-09T03:27:34.546Z,6.22
2019-03-09T03:30:03.200Z,6.65
2019-03-09T03:32:33.275Z,8.15
2019-03-09T03:35:01.766Z,9.38
2019-03-09T03:37:30.229Z,7.97
2019-03-09T03:39:58.690Z,7.33
2019-03-09T03:42:27.168Z,7.75
2019-03-09T03:44:55.628Z,8.25
2019-03-09T03:47:24.131Z,8.15
2019-03-09T03:49:52.624Z,7.25
2019-03-09T03:52:21.094Z,7.12
2019-03-09T03:54:49.569Z,8.48
2019-03-09T03:57:18.184Z,9.88
2019-03-09T03:59:46.898Z,9.05
2019-03-09T04:02:15.494Z,8.18
2019-03-09T04:04:44.035Z,8.68
2019-03-09T04:07:12.686Z,8.85
2019-03-09T04:09:41.467Z,8.35
2019-03-09T04:12:09.923Z,8.85
2019-03-09T04:14:38.478Z,7.80
2019-03-09T04:17:06.982Z,7.92
2019-03-09T04:19:35.453Z,7.75
2019-03-09T04:22:03.921Z,9.40
2019-03-09T04:24:32.422Z,8.38
2019-03-09T04:27:00.921Z,10.20
2019-03-09T04:29:29.473Z,11.95
2019-03-09T04:31:58.020Z,13.30
2019-03-09T04:34:26.489Z,15.00
2019-03-09T04:37:01.028Z,16.95
2019-03-09T04:39:29.504Z,17.45
2019-03-09T04:41:58.067Z,16.17
2019-03-09T04:44:27.341Z,11.97
2019-03-09T04:46:55.895Z,15.25
2019-03-09T04:49:24.374Z,10.60
2019-03-09T04:51:52.834Z,13.25
2019-03-09T04:54:21.329Z,9.75
2019-03-09T04:56:49.796Z,9.33
2019-03-09T04:59:18.268Z,8.83
2019-03-09T05:01:46.731Z,7.58
2019-03-09T05:04:26.579Z,7.05
2019-03-09T05:06:55.067Z,8.68
2019-03-09T05:09:49.216Z,11.63
2019-03-09T05:12:17.716Z,10.45
2019-03-09T05:14:46.177Z,17.92
2019-03-09T05:17:14.682Z,38.23
2019-03-09T05:19:43.154Z,25.30
2019-03-09T05:22:11.653Z,52.70
2019-03-09T05:24:40.117Z,10.25
2019-03-09T05:27:08.598Z,16.32
2019-03-09T05:29:37.077Z,10.70
2019-03-09T05:32:05.649Z,13.93
2019-03-09T05:34:34.126Z,9.50
2019-03-09T05:37:02.624Z,10.70
2019-03-09T05:39:31.164Z,11.05
2019-03-09T05:41:59.761Z,9.10
2019-03-09T05:44:28.310Z,13.65
2019-03-09T05:46:56.862Z,8.23
2019-03-09T05:49:25.353Z,10.05
2019-03-09T05:52:19.589Z,8.50
2019-03-09T05:54:48.065Z,8.43
2019-03-09T05:57:16.579Z,12.33
2019-03-09T05:59:45.033Z,7.92
2019-03-09T06:02:13.498Z,10.23
2019-03-09T06:04:41.989Z,8.05
2019-03-09T06:07:10.453Z,7.87
2019-03-09T06:09:38.948Z,8.20
2019-03-09T06:12:07.421Z,10.38
2019-03-09T06:14:35.914Z,9.98
2019-03-09T06:17:04.447Z,10.40
2019-03-09T06:19:32.922Z,9.18
2019-03-09T06:22:01.386Z,9.40
2019-03-09T06:24:29.884Z,9.83
2019-03-09T06:26:58.379Z,8.85
2019-03-09T06:29:26.838Z,8.45
2019-03-09T06:32:33.469Z,7.30
2019-03-09T06:35:01.939Z,7.10
2019-03-09T06:37:32.166Z,7.97
2019-03-09T06:40:00.621Z,8.25
2019-03-09T06:42:32.457Z,9.65
2019-03-09T06:47:28.864Z,9.33
2019-03-09T06:49:57.377Z,6.70
2019-03-09T06:52:26.438Z,6.90
2019-03-09T06:54:54.901Z,8.18
2019-03-09T06:57:23.503Z,8.05
2019-03-09T06:59:51.994Z,8.28
2019-03-09T07:02:20.455Z,12.25
2019-03-09T07:04:49.035Z,14.63
2019-03-09T07:07:17.498Z,11.08
2019-03-09T07:09:45.960Z,10.65
2019-03-09T07:12:14.462Z,11.35
2019-03-09T07:15:00.868Z,10.78
2019-03-09T07:17:29.359Z,10.72
2019-03-09T07:19:57.845Z,14.45
2019-03-09T07:22:26.312Z,9.68
2019-03-09T07:24:54.808Z,12.60
2019-03-09T07:27:23.270Z,13.85
2019-03-09T07:29:51.843Z,9.85
2019-03-09T07:32:20.303Z,10.95
2019-03-09T07:34:49.059Z,15.85
2019-03-09T07:37:17.524Z,13.32
2019-03-09T07:39:45.999Z,18.45
2019-03-09T07:42:14.499Z,11.18
2019-03-09T07:44:42.960Z,9.55
2019-03-09T07:47:11.433Z,17.85
2019-03-09T07:49:39.900Z,11.65
2019-03-09T07:52:35.245Z,15.75
2019-03-09T07:55:04.553Z,11.30
2019-03-09T07:57:33.044Z,17.10
2019-03-09T08:00:01.543Z,14.65
2019-03-09T08:02:30.008Z,7.62
2019-03-09T08:04:58.480Z,11.10
2019-03-09T08:07:26.960Z,21.85
2019-03-09T08:09:55.466Z,13.93
2019-03-09T08:12:24.276Z,11.03
2019-03-09T08:14:52.803Z,5.97
2019-03-09T08:17:21.307Z,10.82
2019-03-09T08:19:49.790Z,14.53
2019-03-09T08:22:18.386Z,12.30
2019-03-09T08:24:46.863Z,8.58
2019-03-09T08:27:15.330Z,8.15
2019-03-09T08:29:44.861Z,8.48
2019-03-09T08:32:13.359Z,18.32
2019-03-09T08:34:41.817Z,8.23
2019-03-09T08:37:10.290Z,13.95
2019-03-09T08:39:38.808Z,10.50
2019-03-09T08:42:07.563Z,18.55
2019-03-09T08:44:36.039Z,24.87
2019-03-09T08:47:05.835Z,25.97
2019-03-09T08:49:34.441Z,27.73
2019-03-09T08:52:02.914Z,16.70
2019-03-09T08:54:31.406Z,22.77
2019-03-09T08:56:59.915Z,30.35
2019-03-09T08:59:28.406Z,49.05
2019-03-09T09:01:56.868Z,52.05
2019-03-09T09:04:25.336Z,67.85
2019-03-09T09:06:53.815Z,65.40
2019-03-09T09:09:22.326Z,106.55
2019-03-09T09:11:50.791Z,37.17
2019-03-09T09:14:19.297Z,53.75
2019-03-09T09:16:47.805Z,58.83
2019-03-09T09:19:16.267Z,77.55
2019-03-09T09:21:44.772Z,27.10
2019-03-09T09:24:13.244Z,26.12
2019-03-09T09:26:41.759Z,33.73
2019-03-09T09:29:10.245Z,34.03
2019-03-09T09:31:38.726Z,36.98
2019-03-09T09:34:07.271Z,24.00
2019-03-09T09:36:36.023Z,18.77
2019-03-09T09:39:06.389Z,17.35
2019-03-09T09:41:34.853Z,9.53
2019-03-09T09:44:03.975Z,14.75
2019-03-09T09:46:32.621Z,58.45
2019-03-09T09:49:01.087Z,13.08
2019-03-09T09:51:29.584Z,35.08
2019-03-09T09:53:58.048Z,9.88
2019-03-09T09:56:26.525Z,15.20
2019-03-09T09:58:54.989Z,38.65
2019-03-09T10:01:23.487Z,22.60
2019-03-09T10:03:51.948Z,31.23
2019-03-09T10:06:20.413Z,17.62
2019-03-09T10:08:48.915Z,33.25
2019-03-09T10:11:17.401Z,11.95
2019-03-09T10:13:45.875Z,24.32
2019-03-09T10:16:15.542Z,13.20
2019-03-09T10:18:43.955Z,23.47
2019-03-09T10:21:12.463Z,13.83
2019-03-09T10:23:40.930Z,20.37
2019-03-09T10:26:09.395Z,14.60
2019-03-09T10:28:37.910Z,12.75
2019-03-09T10:31:06.405Z,15.23
2019-03-09T10:33:34.839Z,18.32
2019-03-09T10:36:03.324Z,11.75
2019-03-09T10:38:31.788Z,11.65
2019-03-09T10:41:00.300Z,12.18
2019-03-09T10:43:28.766Z,9.88
2019-03-09T10:45:57.339Z,10.10
2019-03-09T10:48:25.864Z,9.13
2019-03-09T10:50:54.345Z,10.85
2019-03-09T10:53:22.817Z,8.88
2019-03-09T10:55:51.287Z,11.80
2019-03-09T10:58:19.775Z,11.70
2019-03-09T11:00:48.387Z,17.12
2019-03-09T11:03:16.952Z,13.35
2019-03-09T11:05:45.486Z,12.53
2019-03-09T11:08:14.115Z,27.62
2019-03-09T11:10:42.610Z,14.25
2019-03-09T11:13:11.078Z,10.55
2019-03-09T11:15:39.572Z,15.88
2019-03-09T11:18:08.035Z,18.67
2019-03-09T11:20:36.533Z,13.88
2019-03-09T11:23:08.267Z,11.22
2019-03-09T11:25:36.811Z,12.53
2019-03-09T11:28:09.945Z,14.18
2019-03-09T11:30:38.558Z,8.63
2019-03-09T11:33:07.061Z,9.83
2019-03-09T11:35:35.723Z,7.40
2019-03-09T11:38:05.971Z,9.38
2019-03-09T11:40:34.552Z,15.83
2019-03-09T11:43:03.959Z,40.00
2019-03-09T11:45:32.424Z,13.38
2019-03-09T11:48:00.961Z,8.85
2019-03-09T11:50:29.428Z,6.60
2019-03-09T11:52:57.893Z,12.05
2019-03-09T11:55:27.789Z,9.45
2019-03-09T11:57:56.330Z,11.40
2019-03-09T12:00:32.418Z,15.50
2019-03-09T12:03:00.955Z,10.53
2019-03-09T12:05:29.265Z,9.35
2019-03-09T12:07:57.730Z,10.13
2019-03-09T12:10:26.264Z,12.30
2019-03-09T12:12:55.110Z,35.52
2019-03-09T12:15:25.609Z,35.35
2019-03-09T12:17:54.115Z,20.55
2019-03-09T12:20:24.295Z,125.67
2019-03-09T12:23:01.243Z,45.73
2019-03-09T12:25:23.050Z,28.47
2019-03-09T12:27:51.551Z,10.25
2019-03-09T12:30:20.774Z,11.97
2019-03-09T12:32:49.443Z,94.75
2019-03-09T12:35:18.013Z,36.63
2019-03-09T12:37:46.880Z,19.02
2019-03-09T12:40:20.114Z,14.30
2019-03-09T12:42:49.046Z,18.75
2019-03-09T12:45:18.022Z,14.35
2019-03-09T12:47:48.024Z,15.53
2019-03-09T12:50:24.337Z,24.65
2019-03-09T12:52:52.808Z,39.03
2019-03-09T12:55:21.348Z,52.35
2019-03-09T12:57:49.837Z,33.90
2019-03-09T13:00:23.964Z,42.73
2019-03-09T13:02:52.466Z,36.75
2019-03-09T13:05:20.963Z,19.60
2019-03-09T13:07:49.436Z,19.40
2019-03-09T13:10:19.605Z,23.55
2019-03-09T13:12:48.139Z,13.58
2019-03-09T13:15:17.270Z,36.77
2019-03-09T13:17:46.087Z,50.90
2019-03-09T13:20:16.110Z,92.17
2019-03-09T13:22:44.766Z,33.20
2019-03-09T13:25:14.012Z,45.10
2019-03-09T13:27:42.512Z,24.67
2019-03-09T13:30:19.517Z,45.75
2019-03-09T13:32:48.108Z,49.50
2019-03-09T13:35:16.570Z,26.12
2019-03-09T13:37:45.273Z,38.50
2019-03-09T13:40:17.291Z,51.58
2019-03-09T13:42:45.749Z,29.30
2019-03-09T13:45:18.908Z,67.60
2019-03-09T13:47:47.378Z,38.48
2019-03-09T13:50:15.917Z,29.82
2019-03-09T13:52:45.042Z,33.75
2019-03-09T13:55:14.367Z,76.72
2019-03-09T13:57:42.923Z,62.93
2019-03-09T14:00:16.518Z,41.37
2019-03-09T14:02:45.164Z,27.60
2019-03-09T14:05:13.890Z,57.30
2019-03-09T14:07:42.467Z,52.55
2019-03-09T14:10:15.520Z,53.63
2019-03-09T14:12:44.244Z,33.30
2019-03-09T14:15:17.040Z,42.33
2019-03-09T14:17:46.726Z,56.30
2019-03-09T14:20:16.383Z,41.92
2019-03-09T14:22:45.019Z,33.78
2019-03-09T14:25:17.019Z,50.12
2019-03-09T14:30:18.473Z,21.82
2019-03-09T14:32:47.343Z,31.07
2019-03-09T14:35:16.002Z,32.67
2019-03-09T14:37:44.605Z,47.40
2019-03-09T14:40:15.390Z,23.20
2019-03-09T14:42:44.364Z,26.33
2019-03-09T14:45:21.536Z,37.25
2019-03-09T14:47:50.015Z,68.72
2019-03-09T14:50:18.555Z,40.83
2019-03-09T14:52:47.041Z,17.00
2019-03-09T14:55:15.691Z,23.92
2019-03-09T14:57:46.039Z,20.90
2019-03-09T15:00:25.942Z,44.55
2019-03-09T15:02:54.534Z,32.80
2019-03-09T15:05:23.251Z,43.85
2019-03-09T15:07:53.117Z,31.52
2019-03-09T15:10:21.698Z,17.40
2019-03-09T15:12:50.297Z,16.45
2019-03-09T15:15:20.110Z,33.15
2019-03-09T15:17:48.590Z,45.03
2019-03-09T15:20:17.625Z,39.27
2019-03-09T15:22:46.204Z,36.53
2019-03-09T15:25:20.153Z,48.52
2019-03-09T15:27:48.879Z,30.12
2019-03-09T15:30:18.449Z,24.60
2019-03-09T15:32:46.936Z,54.98
2019-03-09T15:35:18.575Z,22.50
2019-03-09T15:37:47.315Z,29.30
2019-03-09T15:40:17.770Z,41.50
2019-03-09T15:42:46.246Z,58.65
2019-03-09T15:45:19.535Z,28.87
2019-03-09T15:47:48.284Z,46.53
2019-03-09T15:50:23.987Z,64.32
2019-03-09T15:52:53.517Z,54.65
2019-03-09T15:55:21.981Z,45.55
2019-03-09T15:57:50.464Z,49.35
2019-03-09T16:00:25.183Z,65.50
2019-03-09T16:02:53.936Z,81.55
2019-03-09T16:05:22.489Z,165.62
2019-03-09T16:07:50.982Z,129.90
2019-03-09T16:10:22.838Z,84.87
2019-03-09T16:12:51.310Z,99.17
2019-03-09T16:15:20.071Z,57.53
2019-03-09T16:17:48.637Z,56.28
2019-03-09T16:20:19.788Z,60.75
2019-03-09T16:22:48.259Z,54.08
2019-03-09T16:25:16.830Z,91.10
2019-03-09T16:27:45.324Z,88.82
2019-03-09T16:30:22.034Z,65.52
2019-03-09T16:32:50.761Z,53.23
2019-03-09T16:35:19.352Z,67.58
2019-03-09T16:37:49.180Z,38.00
2019-03-09T16:40:19.976Z,29.07
2019-03-09T16:42:48.483Z,30.40
2019-03-09T16:45:17.325Z,19.15
2019-03-09T16:47:45.855Z,18.30
2019-03-09T16:50:18.279Z,32.40
2019-03-09T16:52:47.398Z,21.00
2019-03-09T16:55:16.232Z,18.67
2019-03-09T16:57:46.061Z,16.32
2019-03-09T17:00:19.507Z,17.20
2019-03-09T17:02:48.286Z,14.85
2019-03-09T17:05:17.089Z,20.97
2019-03-09T17:07:45.636Z,71.80
2019-03-09T17:10:19.351Z,158.85
2019-03-09T17:12:48.041Z,142.20
2019-03-09T17:15:21.289Z,132.18
2019-03-09T17:17:49.840Z,170.70
2019-03-09T17:20:18.794Z,52.03
2019-03-09T17:22:47.288Z,122.72
2019-03-09T17:25:16.105Z,99.83
2019-03-09T17:27:45.384Z,112.42
2019-03-09T17:30:20.817Z,20.40
2019-03-09T17:32:53.447Z,17.95
2019-03-09T17:35:22.178Z,27.75
2019-03-09T17:40:47.807Z,23.80
2019-03-09T17:43:18.036Z,22.02
2019-03-09T17:45:46.504Z,13.58
2019-03-09T17:48:15.046Z,26.52
2019-03-09T17:50:44.932Z,14.40
2019-03-09T17:53:14.138Z,10.48
2019-03-09T17:55:42.664Z,9.48
2019-03-09T17:58:11.132Z,17.32
2019-03-09T18:00:44.242Z,16.85
2019-03-09T18:03:12.713Z,19.32
2019-03-09T18:05:41.204Z,16.77
2019-03-09T18:08:09.671Z,20.27
2019-03-09T18:10:44.032Z,21.62
2019-03-09T18:13:12.498Z,14.30
2019-03-09T18:15:40.974Z,13.83
2019-03-09T18:18:09.445Z,12.65
2019-03-09T18:20:37.946Z,16.52
2019-03-09T18:23:06.482Z,12.30
2019-03-09T18:25:35.047Z,12.68
2019-03-09T18:28:05.952Z,13.28
2019-03-09T18:30:34.421Z,10.08
2019-03-09T18:33:02.895Z,15.63
2019-03-09T18:35:31.382Z,16.52
2019-03-09T18:37:59.880Z,19.32
2019-03-09T18:40:28.395Z,22.17
2019-03-09T18:42:56.863Z,16.95
2019-03-09T18:45:25.801Z,12.98
2019-03-09T18:47:54.400Z,13.98
2019-03-09T18:50:22.892Z,18.10
2019-03-09T18:52:51.355Z,18.45
2019-03-09T18:55:19.853Z,13.45
2019-03-09T18:57:48.315Z,21.55
2019-03-09T19:00:23.131Z,17.17
2019-03-09T19:02:51.666Z,13.22
2019-03-09T19:05:20.333Z,16.35
2019-03-09T19:07:48.800Z,11.90
2019-03-09T19:10:22.752Z,15.55
2019-03-09T19:12:51.217Z,18.70
2019-03-09T19:15:20.050Z,16.40
2019-03-09T19:17:48.528Z,60.45
2019-03-09T19:20:18.431Z,22.32
2019-03-09T19:22:46.909Z,17.92
2019-03-09T19:25:16.319Z,21.57
2019-03-09T19:27:44.794Z,12.95
2019-03-09T19:30:20.514Z,14.95
2019-03-09T19:32:59.605Z,15.23
2019-03-09T19:35:19.251Z,15.30
2019-03-09T19:37:47.717Z,16.25
2019-03-09T19:40:20.500Z,88.00
2019-03-09T19:42:48.963Z,21.42
2019-03-09T19:45:21.304Z,18.95
2019-03-09T19:47:49.843Z,18.48
2019-03-09T19:50:21.372Z,20.05
2019-03-09T19:52:51.550Z,28.77
2019-03-09T19:55:20.020Z,23.40
2019-03-09T19:57:48.560Z,27.85
2019-03-09T20:00:18.579Z,32.65
2019-03-09T20:02:47.065Z,30.65
2019-03-09T20:05:15.918Z,125.10
2019-03-09T20:07:44.396Z,62.10
2019-03-09T20:10:18.085Z,35.70
2019-03-09T20:12:46.617Z,21.27
2019-03-09T20:15:19.239Z,35.08
2019-03-09T20:17:47.732Z,37.05
2019-03-09T20:20:17.035Z,16.93
2019-03-09T20:22:46.388Z,27.27
2019-03-09T20:25:15.024Z,47.08
2019-03-09T20:27:43.533Z,31.20
2019-03-09T20:30:20.956Z,41.83
2019-03-09T20:32:49.504Z,32.23
2019-03-09T20:35:18.165Z,32.53
2019-03-09T20:37:46.739Z,15.15
2019-03-09T20:40:18.600Z,24.52
2019-03-09T20:45:16.336Z,22.25
2019-03-09T20:47:45.786Z,14.75
2019-03-09T20:50:18.725Z,14.15
2019-03-09T20:52:47.375Z,17.12
2019-03-09T20:55:15.939Z,15.88
2019-03-09T20:57:44.474Z,16.77
2019-03-09T21:00:17.564Z,15.88
2019-03-09T21:02:46.028Z,17.48
2019-03-09T21:05:14.609Z,11.38
2019-03-09T21:07:43.132Z,11.15
2019-03-09T21:10:14.662Z,15.32
2019-03-09T21:13:10.273Z,15.58
2019-03-09T21:15:38.763Z,33.78
2019-03-09T21:18:07.256Z,13.90
2019-03-09T21:20:35.730Z,13.32
2019-03-09T21:23:04.296Z,14.20
2019-03-09T21:25:32.762Z,18.25
2019-03-09T21:28:01.406Z,24.70
2019-03-09T21:30:29.949Z,17.40
2019-03-09T21:32:58.441Z,23.02
2019-03-09T21:35:26.967Z,13.28
2019-03-09T21:37:55.474Z,12.88
2019-03-09T21:40:23.970Z,10.98
2019-03-09T21:42:52.497Z,9.58
2019-03-09T21:45:21.235Z,10.58
2019-03-09T21:47:49.707Z,10.95
2019-03-09T21:50:18.691Z,11.22
2019-03-09T21:52:47.155Z,9.70
2019-03-09T21:55:16.848Z,11.35
2019-03-09T21:57:46.994Z,13.13
2019-03-09T22:00:20.560Z,10.90
2019-03-09T22:02:50.288Z,11.70
2019-03-09T22:05:19.172Z,15.60
2019-03-09T22:07:47.738Z,13.28
2019-03-09T22:10:16.276Z,12.15
2019-03-09T22:12:44.797Z,21.80
2019-03-09T22:15:17.668Z,21.02
2019-03-09T22:17:46.160Z,16.37
2019-03-09T22:20:15.167Z,15.83
2019-03-09T22:22:44.080Z,17.75
2019-03-09T22:25:13.991Z,15.63
2019-03-09T22:27:42.638Z,13.65
2019-03-09T22:30:16.403Z,15.68
2019-03-09T22:32:44.886Z,31.68
2019-03-09T22:35:14.201Z,14.65
2019-03-09T22:37:42.697Z,13.58
2019-03-09T22:40:18.339Z,11.83
2019-03-09T22:42:46.887Z,14.98
2019-03-09T22:45:16.094Z,11.85
2019-03-09T22:47:44.895Z,14.05
2019-03-09T22:50:21.758Z,13.83
2019-03-09T22:52:50.252Z,12.18
2019-03-09T22:55:18.739Z,10.38
2019-03-09T22:57:47.209Z,11.53
2019-03-09T23:00:24.555Z,10.55
2019-03-09T23:02:53.290Z,9.80
2019-03-09T23:05:21.855Z,12.95
2019-03-09T23:07:50.319Z,11.40
2019-03-09T23:10:28.416Z,17.37
2019-03-09T23:12:56.998Z,19.02
2019-03-09T23:15:25.543Z,13.30
2019-03-09T23:17:54.041Z,15.85
2019-03-09T23:20:22.645Z,12.80
2019-03-09T23:22:51.117Z,10.32
2019-03-09T23:25:19.598Z,13.18
2019-03-09T23:27:48.172Z,12.07
2019-03-09T23:30:21.850Z,10.93
2019-03-09T23:32:50.638Z,22.05
2019-03-09T23:35:19.117Z,10.32
2019-03-09T23:37:47.995Z,17.87
2019-03-09T23:40:18.501Z,9.65
2019-03-09T23:42:46.991Z,9.68
2019-03-09T23:45:20.685Z,12.00
2019-03-09T23:47:49.356Z,9.53
2019-03-09T23:50:18.671Z,4.55
2019-03-09T23:52:47.384Z,3.00
2019-03-09T23:55:22.102Z,3.27
2019-03-09T23:57:47.968Z,3.20
